IGO5143 VOHS-VABB
Flight info
| Callsign | IGO5143 |
|---|---|
| Flight time | 0h 56m |
| Altitude | 36000 |
| Route | TAMIV5 APUSU W18 OPAKA EMRAK2A |
| Aircraft | A20N/M-SDE2E3FGHIRWXY/LB1 |
Departure
| Time | 2026-04-25 09:23 |
|---|---|
| Airport | Rajiv Gandhi International Airport (VOHS) |
Arrival
| Time | 2026-04-25 10:19 |
|---|---|
| Airport | Chhatrapati Shivaji Maharaj International Airport (VABB) |
| Time | Latitude | Longitude | Altitude | Speed | Heading |
|---|---|---|---|---|---|
| 2026-04-25 08:47 | 17.23427 | 78.43075 | 1982 ft | 0 kts | 359° |
| 2026-04-25 09:06 | 17.23416 | 78.43076 | 1981 ft | 2 kts | 359° |
| 2026-04-25 09:06 | 17.23400 | 78.43076 | 1983 ft | 2 kts | 359° |
| 2026-04-25 09:06 | 17.23383 | 78.43076 | 1980 ft | 2 kts | 358° |
| 2026-04-25 09:07 | 17.23366 | 78.43077 | 1982 ft | 2 kts | 359° |
| 2026-04-25 09:07 | 17.23359 | 78.43077 | 1981 ft | 0 kts | 3° |
| 2026-04-25 09:07 | 17.23357 | 78.43077 | 1981 ft | 2 kts | 6° |
| 2026-04-25 09:07 | 17.23341 | 78.43072 | 1982 ft | 2 kts | 41° |
| 2026-04-25 09:08 | 17.23331 | 78.43059 | 1980 ft | 2 kts | 65° |
| 2026-04-25 09:08 | 17.23327 | 78.43050 | 1982 ft | 2 kts | 80° |
| 2026-04-25 09:08 | 17.23326 | 78.43042 | 1981 ft | 1 kts | 80° |
| 2026-04-25 09:08 | 17.23326 | 78.43039 | 1981 ft | 0 kts | 80° |
| 2026-04-25 09:09 | 17.23325 | 78.43035 | 1981 ft | 1 kts | 80° |
| 2026-04-25 09:09 | 17.23324 | 78.43031 | 1981 ft | 1 kts | 80° |
| 2026-04-25 09:09 | 17.23324 | 78.43028 | 1982 ft | 0 kts | 80° |
| 2026-04-25 09:09 | 17.23323 | 78.43024 | 1982 ft | 0 kts | 80° |
| 2026-04-25 09:10 | 17.23323 | 78.43021 | 1980 ft | 0 kts | 80° |
| 2026-04-25 09:10 | 17.23322 | 78.43017 | 1980 ft | 0 kts | 80° |
| 2026-04-25 09:10 | 17.23329 | 78.43060 | 1980 ft | 0 kts | 80° |
| 2026-04-25 09:11 | 17.23329 | 78.43062 | 1980 ft | 2 kts | 82° |
| 2026-04-25 09:11 | 17.23329 | 78.43104 | 1981 ft | 10 kts | 90° |
| 2026-04-25 09:12 | 17.23302 | 78.43162 | 1981 ft | 12 kts | 165° |
| 2026-04-25 09:12 | 17.23201 | 78.43163 | 1981 ft | 11 kts | 179° |
| 2026-04-25 09:12 | 17.23197 | 78.43163 | 1981 ft | 0 kts | 179° |
| 2026-04-25 09:15 | 17.23181 | 78.43163 | 1982 ft | 6 kts | 178° |
| 2026-04-25 09:15 | 17.23111 | 78.43176 | 1979 ft | 14 kts | 149° |
| 2026-04-25 09:16 | 17.23087 | 78.43288 | 1979 ft | 20 kts | 88° |
| 2026-04-25 09:16 | 17.23090 | 78.43454 | 1979 ft | 25 kts | 89° |
| 2026-04-25 09:16 | 17.23090 | 78.43666 | 1980 ft | 34 kts | 91° |
| 2026-04-25 09:16 | 17.23095 | 78.43946 | 1980 ft | 42 kts | 84° |
| 2026-04-25 09:17 | 17.23105 | 78.44548 | 1980 ft | 40 kts | 89° |
| 2026-04-25 09:17 | 17.23106 | 78.44835 | 1979 ft | 39 kts | 89° |
| 2026-04-25 09:17 | 17.23111 | 78.45113 | 1981 ft | 37 kts | 89° |
| 2026-04-25 09:18 | 17.23114 | 78.45280 | 1980 ft | 13 kts | 92° |
| 2026-04-25 09:18 | 17.23091 | 78.45317 | 1979 ft | 0 kts | 165° |
| 2026-04-25 09:19 | 17.23066 | 78.45321 | 1980 ft | 8 kts | 174° |
| 2026-04-25 09:19 | 17.23001 | 78.45320 | 1980 ft | 12 kts | 189° |
| 2026-04-25 09:19 | 17.22919 | 78.45257 | 1982 ft | 17 kts | 222° |
| 2026-04-25 09:20 | 17.22908 | 78.45168 | 1981 ft | 0 kts | 269° |
| 2026-04-25 09:21 | 17.22908 | 78.45165 | 1981 ft | 3 kts | 269° |
| 2026-04-25 09:21 | 17.22906 | 78.45050 | 1981 ft | 47 kts | 269° |
| 2026-04-25 09:22 | 17.22898 | 78.44477 | 1982 ft | 108 kts | 269° |
| 2026-04-25 09:22 | 17.22884 | 78.43521 | 1982 ft | 152 kts | 269° |
| 2026-04-25 09:22 | 17.22869 | 78.42320 | 2210 ft | 169 kts | 269° |
| 2026-04-25 09:22 | 17.22860 | 78.41060 | 2611 ft | 176 kts | 269° |
| 2026-04-25 09:23 | 17.22865 | 78.39792 | 3156 ft | 174 kts | 271° |
| 2026-04-25 09:23 | 17.22886 | 78.38512 | 3724 ft | 182 kts | 270° |
| 2026-04-25 09:23 | 17.22860 | 78.37133 | 4281 ft | 199 kts | 269° |
| 2026-04-25 09:23 | 17.22812 | 78.35609 | 4772 ft | 219 kts | 268° |
| 2026-04-25 09:24 | 17.22764 | 78.33965 | 5369 ft | 230 kts | 269° |
| 2026-04-25 09:24 | 17.22892 | 78.32264 | 6004 ft | 246 kts | 282° |
| 2026-04-25 09:24 | 17.23379 | 78.30464 | 6553 ft | 268 kts | 288° |
| 2026-04-25 09:24 | 17.23954 | 78.28558 | 7009 ft | 288 kts | 288° |
| 2026-04-25 09:25 | 17.24567 | 78.26493 | 7466 ft | 304 kts | 288° |
| 2026-04-25 09:25 | 17.25189 | 78.24368 | 8266 ft | 307 kts | 288° |
| 2026-04-25 09:25 | 17.25812 | 78.22225 | 9131 ft | 310 kts | 288° |
| 2026-04-25 09:25 | 17.26444 | 78.20046 | 9971 ft | 313 kts | 288° |
| 2026-04-25 09:26 | 17.27081 | 78.17849 | 10720 ft | 318 kts | 288° |
| 2026-04-25 09:26 | 17.27728 | 78.15620 | 11513 ft | 322 kts | 288° |
| 2026-04-25 09:26 | 17.28386 | 78.13355 | 12300 ft | 327 kts | 288° |
| 2026-04-25 09:26 | 17.29053 | 78.11056 | 12976 ft | 337 kts | 288° |
| 2026-04-25 09:27 | 17.29759 | 78.08626 | 13220 ft | 361 kts | 287° |
| 2026-04-25 09:27 | 17.30490 | 78.06100 | 13781 ft | 372 kts | 287° |
| 2026-04-25 09:27 | 17.31250 | 78.03478 | 14449 ft | 373 kts | 287° |
| 2026-04-25 09:27 | 17.32005 | 78.00866 | 15086 ft | 375 kts | 287° |
| 2026-04-25 09:28 | 17.32751 | 77.98284 | 15818 ft | 374 kts | 287° |
| 2026-04-25 09:28 | 17.33509 | 77.95663 | 16529 ft | 373 kts | 286° |
| 2026-04-25 09:28 | 17.34250 | 77.93097 | 17165 ft | 374 kts | 286° |
| 2026-04-25 09:28 | 17.35007 | 77.90476 | 17751 ft | 377 kts | 286° |
| 2026-04-25 09:29 | 17.35767 | 77.87838 | 18305 ft | 379 kts | 286° |
| 2026-04-25 09:29 | 17.36533 | 77.85183 | 18798 ft | 382 kts | 285° |
| 2026-04-25 09:29 | 17.37303 | 77.82514 | 19274 ft | 385 kts | 285° |
| 2026-04-25 09:29 | 17.38079 | 77.79823 | 19757 ft | 387 kts | 285° |
| 2026-04-25 09:30 | 17.38857 | 77.77122 | 20238 ft | 390 kts | 285° |
| 2026-04-25 09:30 | 17.39648 | 77.74377 | 20720 ft | 393 kts | 284° |
| 2026-04-25 09:30 | 17.40440 | 77.71626 | 21184 ft | 395 kts | 284° |
| 2026-04-25 09:30 | 17.41235 | 77.68863 | 21654 ft | 398 kts | 284° |
| 2026-04-25 09:31 | 17.42037 | 77.66074 | 22108 ft | 401 kts | 284° |
| 2026-04-25 09:31 | 17.42832 | 77.63308 | 22558 ft | 403 kts | 283° |
| 2026-04-25 09:31 | 17.43620 | 77.60469 | 23019 ft | 405 kts | 280° |
| 2026-04-25 09:31 | 17.44138 | 77.57570 | 23471 ft | 404 kts | 274° |
| 2026-04-25 09:32 | 17.44498 | 77.54645 | 23846 ft | 406 kts | 274° |
| 2026-04-25 09:32 | 17.44870 | 77.51710 | 24270 ft | 407 kts | 274° |
| 2026-04-25 09:32 | 17.45249 | 77.48758 | 24680 ft | 408 kts | 274° |
| 2026-04-25 09:32 | 17.45628 | 77.45809 | 25079 ft | 409 kts | 274° |
| 2026-04-25 09:33 | 17.46008 | 77.42846 | 25465 ft | 411 kts | 274° |
| 2026-04-25 09:33 | 17.46383 | 77.39908 | 25839 ft | 412 kts | 274° |
| 2026-04-25 09:33 | 17.46764 | 77.36926 | 26209 ft | 413 kts | 274° |
| 2026-04-25 09:33 | 17.47144 | 77.33935 | 26570 ft | 414 kts | 274° |
| 2026-04-25 09:34 | 17.47521 | 77.30971 | 26915 ft | 416 kts | 274° |
| 2026-04-25 09:34 | 17.47902 | 77.27968 | 27251 ft | 417 kts | 274° |
| 2026-04-25 09:34 | 17.48285 | 77.24949 | 27590 ft | 418 kts | 274° |
| 2026-04-25 09:34 | 17.48668 | 77.21928 | 27919 ft | 419 kts | 273° |
| 2026-04-25 09:35 | 17.49054 | 77.18877 | 28249 ft | 421 kts | 274° |
| 2026-04-25 09:35 | 17.49739 | 77.15865 | 28557 ft | 430 kts | 285° |
| 2026-04-25 09:35 | 17.51082 | 77.13023 | 28862 ft | 440 kts | 298° |
| 2026-04-25 09:35 | 17.52871 | 77.10392 | 29152 ft | 445 kts | 301° |
| 2026-04-25 09:36 | 17.54727 | 77.07834 | 29442 ft | 447 kts | 301° |
| 2026-04-25 09:36 | 17.56577 | 77.05288 | 29719 ft | 449 kts | 301° |
| 2026-04-25 09:36 | 17.58496 | 77.02611 | 30004 ft | 450 kts | 301° |
| 2026-04-25 09:36 | 17.60368 | 76.99964 | 30249 ft | 452 kts | 300° |
| 2026-04-25 09:37 | 17.62235 | 76.97305 | 30499 ft | 454 kts | 300° |
| 2026-04-25 09:37 | 17.64112 | 76.94621 | 30753 ft | 455 kts | 300° |
| 2026-04-25 09:37 | 17.65985 | 76.91939 | 31019 ft | 457 kts | 300° |
| 2026-04-25 09:37 | 17.67864 | 76.89249 | 31337 ft | 457 kts | 300° |
| 2026-04-25 09:38 | 17.69716 | 76.86597 | 31659 ft | 456 kts | 300° |
| 2026-04-25 09:38 | 17.71603 | 76.83894 | 32004 ft | 455 kts | 300° |
| 2026-04-25 09:38 | 17.73449 | 76.81247 | 32325 ft | 454 kts | 299° |
| 2026-04-25 09:38 | 17.75312 | 76.78576 | 32642 ft | 453 kts | 299° |
| 2026-04-25 09:39 | 17.77165 | 76.75918 | 32951 ft | 452 kts | 299° |
| 2026-04-25 09:39 | 17.79024 | 76.73249 | 33262 ft | 452 kts | 299° |
| 2026-04-25 09:39 | 17.80810 | 76.70553 | 33554 ft | 446 kts | 295° |
| 2026-04-25 09:40 | 17.84050 | 76.65001 | 34086 ft | 445 kts | 294° |
| 2026-04-25 09:40 | 17.85654 | 76.62235 | 34343 ft | 443 kts | 294° |
| 2026-04-25 09:40 | 17.87253 | 76.59476 | 34590 ft | 442 kts | 294° |
| 2026-04-25 09:40 | 17.88855 | 76.56715 | 34840 ft | 441 kts | 294° |
| 2026-04-25 09:41 | 17.90451 | 76.53965 | 35074 ft | 440 kts | 294° |
| 2026-04-25 09:41 | 17.92044 | 76.51219 | 35301 ft | 439 kts | 294° |
| 2026-04-25 09:41 | 17.93632 | 76.48478 | 35526 ft | 439 kts | 294° |
| 2026-04-25 09:41 | 17.95200 | 76.45773 | 35751 ft | 438 kts | 294° |
| 2026-04-25 09:42 | 17.96778 | 76.43047 | 35916 ft | 437 kts | 294° |
| 2026-04-25 09:42 | 17.98359 | 76.40317 | 35918 ft | 437 kts | 294° |
| 2026-04-25 09:42 | 18.01512 | 76.34867 | 35919 ft | 436 kts | 294° |
| 2026-04-25 09:43 | 18.04656 | 76.29427 | 35910 ft | 436 kts | 294° |
| 2026-04-25 09:43 | 18.07812 | 76.23964 | 35908 ft | 436 kts | 294° |
| 2026-04-25 09:44 | 18.10942 | 76.18540 | 35919 ft | 436 kts | 294° |
| 2026-04-25 09:44 | 18.14097 | 76.13069 | 35919 ft | 437 kts | 294° |
| 2026-04-25 09:45 | 18.17248 | 76.07603 | 35917 ft | 437 kts | 294° |
| 2026-04-25 09:45 | 18.20397 | 76.02133 | 35924 ft | 437 kts | 294° |
| 2026-04-25 09:46 | 18.23527 | 75.96692 | 35923 ft | 437 kts | 293° |
| 2026-04-25 09:46 | 18.26674 | 75.91216 | 35916 ft | 437 kts | 293° |
| 2026-04-25 09:47 | 18.29816 | 75.85745 | 35925 ft | 437 kts | 293° |
| 2026-04-25 09:47 | 18.32961 | 75.80264 | 35931 ft | 436 kts | 293° |
| 2026-04-25 09:48 | 18.36087 | 75.74811 | 35930 ft | 436 kts | 293° |
| 2026-04-25 09:48 | 18.38692 | 75.70263 | 35917 ft | 436 kts | 293° |
| 2026-04-25 09:49 | 18.42327 | 75.63913 | 35915 ft | 435 kts | 293° |
| 2026-04-25 09:49 | 18.45448 | 75.58455 | 35917 ft | 434 kts | 293° |
| 2026-04-25 09:50 | 18.48056 | 75.53889 | 35905 ft | 433 kts | 293° |
| 2026-04-25 09:50 | 18.51161 | 75.48451 | 35901 ft | 433 kts | 293° |
| 2026-04-25 09:51 | 18.54260 | 75.43017 | 35897 ft | 432 kts | 293° |
| 2026-04-25 09:51 | 18.57334 | 75.37625 | 35895 ft | 432 kts | 293° |
| 2026-04-25 09:52 | 18.60431 | 75.32186 | 35891 ft | 432 kts | 293° |
| 2026-04-25 09:52 | 18.63515 | 75.26764 | 35888 ft | 431 kts | 293° |
| 2026-04-25 09:53 | 18.66592 | 75.21352 | 35889 ft | 431 kts | 293° |
| 2026-04-25 09:53 | 18.69672 | 75.15929 | 35893 ft | 431 kts | 293° |
| 2026-04-25 09:54 | 18.72708 | 75.10507 | 35889 ft | 426 kts | 288° |
| 2026-04-25 09:54 | 18.74636 | 75.04714 | 35889 ft | 417 kts | 281° |
| 2026-04-25 09:55 | 18.76383 | 74.98877 | 35889 ft | 417 kts | 281° |
| 2026-04-25 09:55 | 18.78142 | 74.93047 | 35890 ft | 417 kts | 281° |
| 2026-04-25 09:56 | 18.79895 | 74.87248 | 35890 ft | 417 kts | 281° |
| 2026-04-25 09:56 | 18.81655 | 74.81417 | 35893 ft | 417 kts | 281° |
| 2026-04-25 09:57 | 18.83409 | 74.75607 | 35416 ft | 413 kts | 281° |
| 2026-04-25 09:57 | 18.84278 | 74.72722 | 34844 ft | 413 kts | 281° |
| 2026-04-25 09:57 | 18.85150 | 74.69823 | 34204 ft | 414 kts | 280° |
| 2026-04-25 09:58 | 18.86022 | 74.66924 | 33478 ft | 415 kts | 280° |
| 2026-04-25 09:58 | 18.86893 | 74.64016 | 32668 ft | 418 kts | 281° |
| 2026-04-25 09:58 | 18.87773 | 74.61078 | 31835 ft | 421 kts | 281° |
| 2026-04-25 09:58 | 18.88661 | 74.58115 | 31017 ft | 424 kts | 281° |
| 2026-04-25 09:59 | 18.89544 | 74.55168 | 30226 ft | 427 kts | 282° |
| 2026-04-25 09:59 | 18.90441 | 74.52179 | 29510 ft | 426 kts | 282° |
| 2026-04-25 09:59 | 18.91334 | 74.49203 | 28825 ft | 424 kts | 282° |
| 2026-04-25 09:59 | 18.92221 | 74.46240 | 28118 ft | 422 kts | 283° |
| 2026-04-25 10:00 | 18.93101 | 74.43295 | 27421 ft | 421 kts | 283° |
| 2026-04-25 10:00 | 18.93981 | 74.40344 | 26760 ft | 420 kts | 283° |
| 2026-04-25 10:00 | 18.94857 | 74.37405 | 26111 ft | 419 kts | 284° |
| 2026-04-25 10:00 | 18.95730 | 74.34476 | 25477 ft | 418 kts | 284° |
| 2026-04-25 10:01 | 18.96600 | 74.31554 | 24866 ft | 417 kts | 285° |
| 2026-04-25 10:01 | 18.97469 | 74.28637 | 24271 ft | 416 kts | 285° |
| 2026-04-25 10:01 | 18.98336 | 74.25722 | 23680 ft | 415 kts | 286° |
| 2026-04-25 10:01 | 18.99202 | 74.22814 | 23087 ft | 413 kts | 286° |
| 2026-04-25 10:02 | 19.00061 | 74.19932 | 22530 ft | 409 kts | 286° |
| 2026-04-25 10:02 | 19.00911 | 74.17082 | 21975 ft | 406 kts | 286° |
| 2026-04-25 10:02 | 19.01756 | 74.14242 | 21413 ft | 403 kts | 286° |
| 2026-04-25 10:02 | 19.02584 | 74.11459 | 20842 ft | 400 kts | 286° |
| 2026-04-25 10:03 | 19.03414 | 74.08664 | 20285 ft | 398 kts | 286° |
| 2026-04-25 10:03 | 19.04251 | 74.05841 | 19722 ft | 396 kts | 287° |
| 2026-04-25 10:03 | 19.05063 | 74.03103 | 19190 ft | 394 kts | 287° |
| 2026-04-25 10:03 | 19.05880 | 74.00347 | 18661 ft | 392 kts | 287° |
| 2026-04-25 10:04 | 19.06695 | 73.97599 | 18108 ft | 391 kts | 287° |
| 2026-04-25 10:04 | 19.07506 | 73.94863 | 17546 ft | 389 kts | 287° |
| 2026-04-25 10:04 | 19.08312 | 73.92143 | 17009 ft | 386 kts | 287° |
| 2026-04-25 10:04 | 19.09112 | 73.89440 | 16475 ft | 383 kts | 287° |
| 2026-04-25 10:05 | 19.09904 | 73.86764 | 15966 ft | 381 kts | 288° |
| 2026-04-25 10:05 | 19.10692 | 73.84102 | 15455 ft | 378 kts | 288° |
| 2026-04-25 10:05 | 19.11487 | 73.81456 | 14958 ft | 375 kts | 288° |
| 2026-04-25 10:05 | 19.12276 | 73.78833 | 14468 ft | 373 kts | 289° |
| 2026-04-25 10:06 | 19.13054 | 73.76225 | 13994 ft | 371 kts | 289° |
| 2026-04-25 10:06 | 19.13822 | 73.73628 | 13491 ft | 369 kts | 288° |
| 2026-04-25 10:06 | 19.14583 | 73.71043 | 12972 ft | 367 kts | 288° |
| 2026-04-25 10:06 | 19.15339 | 73.68474 | 12449 ft | 365 kts | 288° |
| 2026-04-25 10:07 | 19.16089 | 73.65923 | 11970 ft | 362 kts | 288° |
| 2026-04-25 10:07 | 19.16835 | 73.63378 | 11448 ft | 361 kts | 288° |
| 2026-04-25 10:07 | 19.17569 | 73.60877 | 10991 ft | 359 kts | 288° |
| 2026-04-25 10:07 | 19.18309 | 73.58355 | 10478 ft | 359 kts | 288° |
| 2026-04-25 10:08 | 19.19044 | 73.55844 | 10129 ft | 352 kts | 288° |
| 2026-04-25 10:08 | 19.19752 | 73.53424 | 9966 ft | 336 kts | 288° |
| 2026-04-25 10:08 | 19.20426 | 73.51120 | 9798 ft | 318 kts | 288° |
| 2026-04-25 10:08 | 19.21070 | 73.48922 | 9409 ft | 309 kts | 288° |
| 2026-04-25 10:09 | 19.21670 | 73.46751 | 8857 ft | 306 kts | 281° |
| 2026-04-25 10:09 | 19.21637 | 73.44523 | 8323 ft | 305 kts | 256° |
| 2026-04-25 10:09 | 19.21124 | 73.42376 | 7967 ft | 304 kts | 255° |
| 2026-04-25 10:09 | 19.20589 | 73.40227 | 7647 ft | 300 kts | 255° |
| 2026-04-25 10:10 | 19.20058 | 73.38090 | 7355 ft | 298 kts | 255° |
| 2026-04-25 10:10 | 19.19519 | 73.35949 | 7030 ft | 297 kts | 255° |
| 2026-04-25 10:10 | 19.18994 | 73.33874 | 6689 ft | 295 kts | 255° |
| 2026-04-25 10:10 | 19.18465 | 73.31780 | 6400 ft | 294 kts | 255° |
| 2026-04-25 10:11 | 19.17937 | 73.29714 | 6144 ft | 289 kts | 255° |
| 2026-04-25 10:11 | 19.17158 | 73.27803 | 6039 ft | 277 kts | 233° |
| 2026-04-25 10:11 | 19.15996 | 73.26255 | 6005 ft | 260 kts | 230° |
| 2026-04-25 10:11 | 19.14885 | 73.24820 | 6014 ft | 244 kts | 230° |
| 2026-04-25 10:12 | 19.13785 | 73.23399 | 6003 ft | 256 kts | 230° |
| 2026-04-25 10:12 | 19.12653 | 73.21942 | 6009 ft | 253 kts | 230° |
| 2026-04-25 10:12 | 19.10538 | 73.19209 | 5928 ft | 228 kts | 230° |
| 2026-04-25 10:13 | 19.09739 | 73.17835 | 5783 ft | 212 kts | 249° |
| 2026-04-25 10:13 | 19.09388 | 73.16366 | 5476 ft | 206 kts | 263° |
| 2026-04-25 10:13 | 19.09286 | 73.14855 | 5141 ft | 206 kts | 269° |
| 2026-04-25 10:13 | 19.09263 | 73.13372 | 4753 ft | 204 kts | 270° |
| 2026-04-25 10:14 | 19.09248 | 73.11864 | 4364 ft | 206 kts | 270° |
| 2026-04-25 10:14 | 19.09225 | 73.10360 | 4039 ft | 203 kts | 271° |
| 2026-04-25 10:14 | 19.09202 | 73.08896 | 3743 ft | 195 kts | 271° |
| 2026-04-25 10:14 | 19.09179 | 73.07457 | 3502 ft | 197 kts | 272° |
| 2026-04-25 10:15 | 19.09157 | 73.06007 | 3223 ft | 194 kts | 272° |
| 2026-04-25 10:15 | 19.09138 | 73.04608 | 2983 ft | 190 kts | 271° |
| 2026-04-25 10:15 | 19.09119 | 73.03209 | 2774 ft | 197 kts | 272° |
| 2026-04-25 10:15 | 19.09096 | 73.01739 | 2492 ft | 195 kts | 272° |
| 2026-04-25 10:16 | 19.09074 | 73.00346 | 2276 ft | 190 kts | 272° |
| 2026-04-25 10:16 | 19.09054 | 72.98951 | 2025 ft | 189 kts | 272° |
| 2026-04-25 10:16 | 19.09033 | 72.97584 | 1783 ft | 182 kts | 274° |
| 2026-04-25 10:16 | 19.09013 | 72.96292 | 1572 ft | 167 kts | 273° |
| 2026-04-25 10:17 | 19.08995 | 72.95127 | 1373 ft | 150 kts | 274° |
| 2026-04-25 10:17 | 19.08979 | 72.94094 | 1186 ft | 131 kts | 274° |
| 2026-04-25 10:17 | 19.08969 | 72.93125 | 1035 ft | 135 kts | 274° |
| 2026-04-25 10:17 | 19.08953 | 72.92124 | 868 ft | 133 kts | 272° |
| 2026-04-25 10:18 | 19.08950 | 72.91164 | 654 ft | 130 kts | 270° |
| 2026-04-25 10:18 | 19.08926 | 72.90270 | 507 ft | 114 kts | 268° |
| 2026-04-25 10:18 | 19.08907 | 72.89388 | 432 ft | 128 kts | 271° |
| 2026-04-25 10:18 | 19.08891 | 72.88434 | 285 ft | 131 kts | 272° |
| 2026-04-25 10:19 | 19.08881 | 72.87486 | 90 ft | 124 kts | 271° |
| 2026-04-25 10:19 | 19.08870 | 72.86618 | 49 ft | 104 kts | 269° |
| 2026-04-25 10:19 | 19.08864 | 72.86188 | 47 ft | 25 kts | 268° |
| 2026-04-25 10:19 | 19.08878 | 72.85986 | 47 ft | 33 kts | 284° |
| 2026-04-25 10:20 | 19.08935 | 72.85864 | 48 ft | 0 kts | 300° |
| 2026-04-25 10:20 | 19.08943 | 72.85851 | 46 ft | 5 kts | 300° |
| 2026-04-25 10:20 | 19.08974 | 72.85795 | 48 ft | 12 kts | 300° |
| 2026-04-25 10:20 | 19.09006 | 72.85738 | 48 ft | 10 kts | 300° |
| 2026-04-25 10:21 | 19.09019 | 72.85713 | 47 ft | 0 kts | 300° |
| 2026-04-25 10:21 | 19.09028 | 72.85687 | 46 ft | 8 kts | 279° |
| 2026-04-25 10:21 | 19.09038 | 72.85612 | 49 ft | 11 kts | 314° |
| 2026-04-25 10:21 | 19.09094 | 72.85576 | 49 ft | 8 kts | 283° |
| 2026-04-25 10:22 | 19.09092 | 72.85509 | 49 ft | 10 kts | 268° |
| 2026-04-25 10:22 | 19.09101 | 72.85487 | 47 ft | 3 kts | 336° |
| 2026-04-25 10:22 | 19.09133 | 72.85486 | 49 ft | 2 kts | 1° |
| 2026-04-25 10:22 | 19.09147 | 72.85486 | 49 ft | 1 kts | 1° |
| 2026-04-25 10:23 | 19.09148 | 72.85486 | 49 ft | 0 kts | 1° |
| 2026-04-25 10:23 | 19.09149 | 72.85486 | 49 ft | 0 kts | 0° |
| 2026-04-25 10:23 | 19.09150 | 72.85486 | 49 ft | 0 kts | 359° |
| 2026-04-25 10:24 | 19.09151 | 72.85486 | 49 ft | 0 kts | 360° |
| 2026-04-25 10:24 | 19.09159 | 72.85486 | 49 ft | 0 kts | 360° |